This is the latest recevied weather packets stored in our database for station/object DL3NBY. If no packets are shown the sender has not sent any weather packets the latest 10 day(s).
| Time | Temp. | Humidity | Pressure | Rain* | Wind** | Luminosity | Snow |
|---|---|---|---|---|---|---|---|
| 1777828850 | 20.56° C | 72% | 1010.6 hPa | 0 mm | - | - | - |
| 1777825229 | 22.78° C | 49% | 1010.8 hPa | 0 mm | - | - | - |
| 1777820464 | 23.89° C | 44% | 1011.1 hPa | 0 mm | - | - | - |
| 1777819881 | 24.44° C | 45% | 1011.1 hPa | 0 mm | - | - | - |
| 1777819258 | 24.44° C | 42% | 1011.2 hPa | 0 mm | - | - | - |
| 1777818655 | 24.44° C | 44% | 1011.3 hPa | 0 mm | - | - | - |
| 1777817448 | 25° C | 42% | 1011.4 hPa | 0 mm | - | - | - |
| 1777815034 | 25.56° C | 44% | 1011.6 hPa | 0 mm | - | - | - |
| 1777812622 | 26.11° C | 38% | 1012.1 hPa | 0 mm | - | - | - |
| 1777811416 | 25.56° C | 39% | 1012.4 hPa | 0 mm | - | - | - |
| 1777810874 | 25.56° C | 38% | 1012.4 hPa | 0 mm | - | - | - |
| 1777810270 | 25.56° C | 42% | 1012.5 hPa | 0 mm | - | - | - |
| 1777808460 | 25° C | 36% | 1012.8 hPa | 0 mm | - | - | - |
| 1777806651 | 24.44° C | 39% | 1013.2 hPa | 0 mm | - | - | - |
| 1777803032 | 22.78° C | 45% | 1013.7 hPa | 0 mm | - | - | - |
| 1777801828 | 22.22° C | 46% | 1014.1 hPa | 0 mm | - | - | - |
| 1777798870 | 18.89° C | 59% | 1014.6 hPa | 0 mm | - | - | - |
| 1777793441 | 15° C | 76% | 1014.5 hPa | 0 mm | - | - | - |
| 1777792837 | 14.44° C | 75% | 1014.6 hPa | 0 mm | - | - | - |
| 1777792234 | 13.33° C | 78% | 1014.6 hPa | 0 mm | - | - | - |
| 1777791630 | 13.33° C | 81% | 1014.5 hPa | 0 mm | - | - | - |
| 1777786864 | 9.44° C | 90% | 1014.6 hPa | 0 mm | - | - | - |
| 1777785677 | 7.78° C | 97% | 1014.6 hPa | 0 mm | - | - | - |
| 1777781438 | - | 1% | 1014.2 hPa | 0 mm | - | - | - |
| 1777775464 | - | 1% | 1014.6 hPa | 0 mm | - | - | - |
* Rain latest hour (hover to see other rain measurements)
** Current wind speed in m/s (hover to see current wind gust speed)